sensor_id;sensor_type;location;lat;lon;timestamp;noise_LAeq;noise_LA_min;noise_LA_max;noise_LA01;noise_LA95
37833;Laerm;23678;48.778;9.160;2023-04-03T00:00:51;36.79;31.68;39.92;;
37833;Laerm;23678;48.778;9.160;2023-04-03T00:03:17;36.79;30.89;39.70;;
37833;Laerm;23678;48.778;9.160;2023-04-03T00:05:43;36.82;29.92;39.58;;
37833;Laerm;23678;48.778;9.160;2023-04-03T00:08:09;36.82;29.92;39.58;;
37833;Laerm;23678;48.778;9.160;2023-04-03T00:10:35;36.81;31.68;40.13;;
37833;Laerm;23678;48.778;9.160;2023-04-03T00:13:00;38.46;31.68;50.87;;
37833;Laerm;23678;48.778;9.160;2023-04-03T00:15:26;37.44;32.35;40.71;;
37833;Laerm;23678;48.778;9.160;2023-04-03T00:17:51;36.97;31.68;39.92;;
37833;Laerm;23678;48.778;9.160;2023-04-03T00:20:17;36.95;31.68;44.54;;
37833;Laerm;23678;48.778;9.160;2023-04-03T00:22:48;37.05;31.68;39.81;;
37833;Laerm;23678;48.778;9.160;2023-04-03T00:25:14;36.94;30.89;39.58;;
37833;Laerm;23678;48.778;9.160;2023-04-03T00:27:40;36.93;31.68;39.92;;
37833;Laerm;23678;48.778;9.160;2023-04-03T00:30:06;37.52;31.68;41.61;;
37833;Laerm;23678;48.778;9.160;2023-04-03T00:32:32;36.95;31.68;39.68;;
37833;Laerm;23678;48.778;9.160;2023-04-03T00:34:57;36.89;31.68;39.92;;
37833;Laerm;23678;48.778;9.160;2023-04-03T00:37:23;36.88;29.92;39.81;;
37833;Laerm;23678;48.778;9.160;2023-04-03T00:39:48;37.01;30.89;41.14;;
37833;Laerm;23678;48.778;9.160;2023-04-03T00:42:13;37.03;31.68;40.43;;
37833;Laerm;23678;48.778;9.160;2023-04-03T00:47:05;36.86;29.92;40.03;;
37833;Laerm;23678;48.778;9.160;2023-04-03T00:49:31;37.39;31.33;41.14;;
37833;Laerm;23678;48.778;9.160;2023-04-03T00:51:56;38.02;32.35;48.83;;
37833;Laerm;23678;48.778;9.160;2023-04-03T00:54:22;36.89;30.89;39.81;;
37833;Laerm;23678;48.778;9.160;2023-04-03T00:56:48;36.87;30.89;39.58;;
37833;Laerm;23678;48.778;9.160;2023-04-03T00:59:20;36.92;28.67;40.03;;
37833;Laerm;23678;48.778;9.160;2023-04-03T01:01:48;37.61;30.89;42.09;;
37833;Laerm;23678;48.778;9.160;2023-04-03T01:06:52;36.92;30.89;40.03;;
37833;Laerm;23678;48.778;9.160;2023-04-03T01:09:17;36.89;29.92;40.13;;
37833;Laerm;23678;48.778;9.160;2023-04-03T01:11:42;38.71;28.67;50.36;;
37833;Laerm;23678;48.778;9.160;2023-04-03T01:14:08;37.56;31.33;41.94;;
37833;Laerm;23678;48.778;9.160;2023-04-03T01:16:33;36.91;30.89;40.23;;
37833;Laerm;23678;48.778;9.160;2023-04-03T01:18:59;36.94;30.89;39.81;;
37833;Laerm;23678;48.778;9.160;2023-04-03T01:26:39;36.90;30.89;39.81;;
37833;Laerm;23678;48.778;9.160;2023-04-03T01:29:05;36.88;30.89;39.70;;
37833;Laerm;23678;48.778;9.160;2023-04-03T01:31:31;36.88;30.89;39.70;;
37833;Laerm;23678;48.778;9.160;2023-04-03T01:33:59;36.97;31.68;39.92;;
37833;Laerm;23678;48.778;9.160;2023-04-03T01:36:33;36.93;30.89;39.46;;
37833;Laerm;23678;48.778;9.160;2023-04-03T01:39:36;36.96;30.89;39.58;;
37833;Laerm;23678;48.778;9.160;2023-04-03T01:42:02;37.13;30.89;41.14;;
37833;Laerm;23678;48.778;9.160;2023-04-03T01:44:28;36.94;29.92;39.81;;
37833;Laerm;23678;48.778;9.160;2023-04-03T01:46:54;37.01;30.89;40.71;;
37833;Laerm;23678;48.778;9.160;2023-04-03T01:49:19;37.01;30.89;40.13;;
37833;Laerm;23678;48.778;9.160;2023-04-03T01:51:44;36.93;31.68;39.58;;
37833;Laerm;23678;48.778;9.160;2023-04-03T01:54:10;38.66;30.89;49.46;;
37833;Laerm;23678;48.778;9.160;2023-04-03T01:56:35;36.95;30.89;39.81;;
37833;Laerm;23678;48.778;9.160;2023-04-03T01:59:00;37.61;29.92;41.75;;
37833;Laerm;23678;48.778;9.160;2023-04-03T02:01:26;37.02;31.68;39.81;;
37833;Laerm;23678;48.778;9.160;2023-04-03T02:03:51;36.93;31.68;40.03;;
37833;Laerm;23678;48.778;9.160;2023-04-03T02:06:17;36.96;31.68;40.13;;
37833;Laerm;23678;48.778;9.160;2023-04-03T02:08:42;36.93;30.89;39.81;;
37833;Laerm;23678;48.778;9.160;2023-04-03T02:11:07;36.96;31.68;39.92;;
37833;Laerm;23678;48.778;9.160;2023-04-03T02:13:33;36.91;31.68;39.58;;
37833;Laerm;23678;48.778;9.160;2023-04-03T02:15:58;37.04;31.68;41.38;;
37833;Laerm;23678;48.778;9.160;2023-04-03T02:18:24;37.03;31.68;40.23;;
37833;Laerm;23678;48.778;9.160;2023-04-03T02:20:49;36.97;30.89;39.70;;
37833;Laerm;23678;48.778;9.160;2023-04-03T02:23:14;36.96;29.92;39.70;;
37833;Laerm;23678;48.778;9.160;2023-04-03T02:25:40;37.01;30.89;40.03;;
37833;Laerm;23678;48.778;9.160;2023-04-03T02:28:05;37.02;31.33;39.92;;
37833;Laerm;23678;48.778;9.160;2023-04-03T02:30:31;37.00;30.89;39.58;;
37833;Laerm;23678;48.778;9.160;2023-04-03T02:32:56;37.25;30.89;40.36;;
37833;Laerm;23678;48.778;9.160;2023-04-03T02:35:22;37.53;32.35;41.61;;
37833;Laerm;23678;48.778;9.160;2023-04-03T02:37:47;36.93;30.89;39.81;;
37833;Laerm;23678;48.778;9.160;2023-04-03T02:40:12;37.20;32.35;43.99;;
37833;Laerm;23678;48.778;9.160;2023-04-03T02:42:38;36.97;30.89;40.33;;
37833;Laerm;23678;48.778;9.160;2023-04-03T02:45:03;36.89;31.68;39.58;;
37833;Laerm;23678;48.778;9.160;2023-04-03T02:47:29;37.56;31.68;42.22;;
37833;Laerm;23678;48.778;9.160;2023-04-03T02:49:54;39.91;30.89;54.53;;
37833;Laerm;23678;48.778;9.160;2023-04-03T02:52:20;36.99;31.68;39.70;;
37833;Laerm;23678;48.778;9.160;2023-04-03T02:54:45;37.06;30.89;40.23;;
37833;Laerm;23678;48.778;9.160;2023-04-03T02:57:11;37.85;30.89;44.62;;
37833;Laerm;23678;48.778;9.160;2023-04-03T02:59:36;38.21;31.68;50.52;;
37833;Laerm;23678;48.778;9.160;2023-04-03T03:02:05;37.13;31.68;41.14;;
37833;Laerm;23678;48.778;9.160;2023-04-03T03:04:31;38.38;29.92;49.11;;
37833;Laerm;23678;48.778;9.160;2023-04-03T03:06:56;37.32;30.89;43.14;;
37833;Laerm;23678;48.778;9.160;2023-04-03T03:09:21;37.36;31.68;45.14;;
37833;Laerm;23678;48.778;9.160;2023-04-03T03:11:50;37.92;30.89;49.63;;
37833;Laerm;23678;48.778;9.160;2023-04-03T03:14:15;40.36;31.68;54.77;;
37833;Laerm;23678;48.778;9.160;2023-04-03T03:16:40;42.69;32.35;59.38;;
37833;Laerm;23678;48.778;9.160;2023-04-03T03:19:06;44.17;32.35;61.14;;
37833;Laerm;23678;48.778;9.160;2023-04-03T03:21:31;43.62;32.35;60.56;;
37833;Laerm;23678;48.778;9.160;2023-04-03T03:23:57;43.74;32.35;59.85;;
37833;Laerm;23678;48.778;9.160;2023-04-03T03:26:22;44.04;32.93;60.24;;
37833;Laerm;23678;48.778;9.160;2023-04-03T03:28:48;44.32;31.68;60.01;;
37833;Laerm;23678;48.778;9.160;2023-04-03T03:31:14;44.52;31.68;60.53;;
37833;Laerm;23678;48.778;9.160;2023-04-03T03:33:40;44.22;31.68;60.03;;
37833;Laerm;23678;48.778;9.160;2023-04-03T03:36:06;44.13;32.00;61.10;;
37833;Laerm;23678;48.778;9.160;2023-04-03T03:38:31;44.94;32.35;61.08;;
37833;Laerm;23678;48.778;9.160;2023-04-03T03:40:56;42.63;30.89;58.75;;
37833;Laerm;23678;48.778;9.160;2023-04-03T03:43:22;40.02;32.35;54.44;;
37833;Laerm;23678;48.778;9.160;2023-04-03T03:45:51;38.62;31.68;48.31;;
37833;Laerm;23678;48.778;9.160;2023-04-03T03:48:17;39.23;32.35;50.84;;
37833;Laerm;23678;48.778;9.160;2023-04-03T03:50:42;38.12;30.89;44.90;;
37833;Laerm;23678;48.778;9.160;2023-04-03T03:53:08;42.67;32.35;65.28;;
37833;Laerm;23678;48.778;9.160;2023-04-03T03:55:33;38.54;32.35;44.76;;
37833;Laerm;23678;48.778;9.160;2023-04-03T03:57:58;39.07;33.44;44.62;;
37833;Laerm;23678;48.778;9.160;2023-04-03T04:00:25;40.16;32.93;51.71;;
37833;Laerm;23678;48.778;9.160;2023-04-03T04:02:50;40.41;33.44;52.94;;
37833;Laerm;23678;48.778;9.160;2023-04-03T04:05:15;39.38;32.93;51.30;;
37833;Laerm;23678;48.778;9.160;2023-04-03T04:07:41;39.62;33.90;53.44;;
37833;Laerm;23678;48.778;9.160;2023-04-03T04:10:06;39.72;32.93;53.43;;
37833;Laerm;23678;48.778;9.160;2023-04-03T04:12:38;40.57;32.93;53.39;;
37833;Laerm;23678;48.778;9.160;2023-04-03T04:15:04;40.84;30.89;53.93;;
37833;Laerm;23678;48.778;9.160;2023-04-03T04:17:29;46.44;32.35;61.05;;
37833;Laerm;23678;48.778;9.160;2023-04-03T04:19:54;44.01;32.35;60.73;;
37833;Laerm;23678;48.778;9.160;2023-04-03T04:22:20;43.51;33.44;55.30;;
37833;Laerm;23678;48.778;9.160;2023-04-03T04:24:45;44.17;33.90;56.78;;
37833;Laerm;23678;48.778;9.160;2023-04-03T04:27:10;44.16;32.93;58.29;;
37833;Laerm;23678;48.778;9.160;2023-04-03T04:29:45;43.79;33.55;57.99;;
37833;Laerm;23678;48.778;9.160;2023-04-03T04:32:10;41.69;33.90;52.97;;
37833;Laerm;23678;48.778;9.160;2023-04-03T04:34:35;41.27;33.97;53.82;;
37833;Laerm;23678;48.778;9.160;2023-04-03T04:37:01;42.59;31.68;55.74;;
37833;Laerm;23678;48.778;9.160;2023-04-03T04:39:26;40.56;33.44;53.56;;
37833;Laerm;23678;48.778;9.160;2023-04-03T04:41:59;41.40;33.44;55.34;;
37833;Laerm;23678;48.778;9.160;2023-04-03T04:44:24;40.11;32.93;51.59;;
37833;Laerm;23678;48.778;9.160;2023-04-03T04:46:49;39.82;33.90;49.71;;
37833;Laerm;23678;48.778;9.160;2023-04-03T04:49:15;40.61;34.69;46.55;;
37833;Laerm;23678;48.778;9.160;2023-04-03T04:51:40;40.64;35.36;51.79;;
37833;Laerm;23678;48.778;9.160;2023-04-03T04:54:05;39.57;32.93;50.52;;
37833;Laerm;23678;48.778;9.160;2023-04-03T04:56:31;40.51;32.35;51.97;;
37833;Laerm;23678;48.778;9.160;2023-04-03T04:58:56;39.76;33.44;48.31;;
37833;Laerm;23678;48.778;9.160;2023-04-03T05:01:21;40.13;32.35;57.89;;
37833;Laerm;23678;48.778;9.160;2023-04-03T05:03:47;40.47;34.31;55.14;;
37833;Laerm;23678;48.778;9.160;2023-04-03T05:06:13;38.78;32.93;46.93;;
37833;Laerm;23678;48.778;9.160;2023-04-03T05:08:38;38.99;32.35;49.62;;
37833;Laerm;23678;48.778;9.160;2023-04-03T05:11:03;39.08;33.44;49.78;;
37833;Laerm;23678;48.778;9.160;2023-04-03T05:13:29;38.96;33.44;52.31;;
37833;Laerm;23678;48.778;9.160;2023-04-03T05:15:54;39.15;32.93;47.16;;
37833;Laerm;23678;48.778;9.160;2023-04-03T05:18:20;41.01;32.93;56.80;;
37833;Laerm;23678;48.778;9.160;2023-04-03T05:20:47;43.04;35.04;56.17;;
37833;Laerm;23678;48.778;9.160;2023-04-03T05:23:13;39.12;30.89;52.47;;
37833;Laerm;23678;48.778;9.160;2023-04-03T05:25:38;40.75;33.44;62.14;;
37833;Laerm;23678;48.778;9.160;2023-04-03T05:28:04;40.92;34.69;51.53;;
37833;Laerm;23678;48.778;9.160;2023-04-03T05:30:29;39.90;33.90;49.12;;
37833;Laerm;23678;48.778;9.160;2023-04-03T05:32:55;41.06;35.04;48.12;;
37833;Laerm;23678;48.778;9.160;2023-04-03T05:35:20;41.26;34.69;52.17;;
37833;Laerm;23678;48.778;9.160;2023-04-03T05:37:46;43.85;35.66;58.49;;
37833;Laerm;23678;48.778;9.160;2023-04-03T05:40:11;40.45;33.44;48.98;;
37833;Laerm;23678;48.778;9.160;2023-04-03T05:42:36;41.37;35.31;47.42;;
37833;Laerm;23678;48.778;9.160;2023-04-03T05:45:02;40.98;35.94;51.30;;
37833;Laerm;23678;48.778;9.160;2023-04-03T05:47:27;46.34;36.20;65.32;;
37833;Laerm;23678;48.778;9.160;2023-04-03T05:49:53;43.15;36.20;55.21;;
37833;Laerm;23678;48.778;9.160;2023-04-03T05:52:20;41.38;35.36;57.69;;
37833;Laerm;23678;48.778;9.160;2023-04-03T05:54:46;40.43;34.31;50.77;;
37833;Laerm;23678;48.778;9.160;2023-04-03T05:57:13;40.33;34.69;47.74;;
37833;Laerm;23678;48.778;9.160;2023-04-03T05:59:39;41.37;35.04;55.75;;
37833;Laerm;23678;48.778;9.160;2023-04-03T06:02:04;42.54;33.90;58.04;;
37833;Laerm;23678;48.778;9.160;2023-04-03T06:04:30;41.59;35.36;51.26;;
37833;Laerm;23678;48.778;9.160;2023-04-03T06:06:56;41.07;33.90;52.12;;
37833;Laerm;23678;48.778;9.160;2023-04-03T06:09:23;41.70;35.36;52.32;;
37833;Laerm;23678;48.778;9.160;2023-04-03T06:11:50;40.26;33.90;49.06;;
37833;Laerm;23678;48.778;9.160;2023-04-03T06:14:16;40.41;34.31;49.60;;
37833;Laerm;23678;48.778;9.160;2023-04-03T06:16:41;39.85;32.35;48.48;;
37833;Laerm;23678;48.778;9.160;2023-04-03T06:19:07;40.93;35.66;49.63;;
37833;Laerm;23678;48.778;9.160;2023-04-03T06:21:39;41.02;33.90;53.59;;
37833;Laerm;23678;48.778;9.160;2023-04-03T06:24:05;41.63;33.90;55.92;;
37833;Laerm;23678;48.778;9.160;2023-04-03T06:26:31;41.13;34.31;54.79;;
37833;Laerm;23678;48.778;9.160;2023-04-03T06:28:56;40.50;33.90;52.54;;
37833;Laerm;23678;48.778;9.160;2023-04-03T06:31:21;39.23;33.90;48.16;;
37833;Laerm;23678;48.778;9.160;2023-04-03T06:33:47;41.30;34.69;49.78;;
37833;Laerm;23678;48.778;9.160;2023-04-03T06:36:25;39.90;33.90;49.08;;
37833;Laerm;23678;48.778;9.160;2023-04-03T06:38:51;40.57;34.31;51.02;;
37833;Laerm;23678;48.778;9.160;2023-04-03T06:41:16;41.18;35.94;52.80;;
37833;Laerm;23678;48.778;9.160;2023-04-03T06:43:42;41.39;35.01;50.26;;
37833;Laerm;23678;48.778;9.160;2023-04-03T06:46:14;42.08;35.36;52.39;;
37833;Laerm;23678;48.778;9.160;2023-04-03T06:48:40;42.69;35.04;59.24;;
37833;Laerm;23678;48.778;9.160;2023-04-03T06:51:06;41.80;34.31;56.87;;
37833;Laerm;23678;48.778;9.160;2023-04-03T06:53:44;40.13;35.86;48.54;;
37833;Laerm;23678;48.778;9.160;2023-04-03T06:56:21;40.68;33.44;59.30;;
37833;Laerm;23678;48.778;9.160;2023-04-03T06:58:47;40.32;33.44;48.92;;
37833;Laerm;23678;48.778;9.160;2023-04-03T07:01:13;40.74;35.04;47.70;;
37833;Laerm;23678;48.778;9.160;2023-04-03T07:03:39;39.12;33.97;43.68;;
37833;Laerm;23678;48.778;9.160;2023-04-03T07:06:05;41.43;33.90;49.72;;
37833;Laerm;23678;48.778;9.160;2023-04-03T07:08:32;42.25;34.69;58.46;;
37833;Laerm;23678;48.778;9.160;2023-04-03T07:10:58;38.93;33.44;46.28;;
37833;Laerm;23678;48.778;9.160;2023-04-03T07:13:23;38.71;32.93;50.37;;
37833;Laerm;23678;48.778;9.160;2023-04-03T07:15:49;40.94;35.36;49.91;;
37833;Laerm;23678;48.778;9.160;2023-04-03T07:18:15;39.60;33.44;55.24;;
37833;Laerm;23678;48.778;9.160;2023-04-03T07:20:42;39.94;33.90;53.65;;
37833;Laerm;23678;48.778;9.160;2023-04-03T07:23:07;41.40;33.90;54.29;;
37833;Laerm;23678;48.778;9.160;2023-04-03T07:25:33;42.45;35.04;56.82;;
37833;Laerm;23678;48.778;9.160;2023-04-03T07:27:58;41.57;35.94;51.56;;
37833;Laerm;23678;48.778;9.160;2023-04-03T07:30:24;39.56;32.35;53.05;;
37833;Laerm;23678;48.778;9.160;2023-04-03T07:32:56;39.76;34.31;47.10;;
37833;Laerm;23678;48.778;9.160;2023-04-03T07:35:21;42.73;34.69;56.19;;
37833;Laerm;23678;48.778;9.160;2023-04-03T07:37:47;39.22;33.90;45.01;;
37833;Laerm;23678;48.778;9.160;2023-04-03T07:40:12;43.37;36.45;53.36;;
37833;Laerm;23678;48.778;9.160;2023-04-03T07:42:39;41.83;35.36;52.24;;
37833;Laerm;23678;48.778;9.160;2023-04-03T07:45:05;54.29;35.04;77.07;;
37833;Laerm;23678;48.778;9.160;2023-04-03T07:47:30;41.10;35.01;48.58;;
37833;Laerm;23678;48.778;9.160;2023-04-03T07:49:56;40.94;33.44;49.84;;
37833;Laerm;23678;48.778;9.160;2023-04-03T07:52:22;39.96;32.35;48.36;;
37833;Laerm;23678;48.778;9.160;2023-04-03T07:54:47;40.65;33.90;55.33;;
37833;Laerm;23678;48.778;9.160;2023-04-03T07:57:13;41.65;33.90;52.98;;
37833;Laerm;23678;48.778;9.160;2023-04-03T07:59:38;42.20;34.69;52.13;;
37833;Laerm;23678;48.778;9.160;2023-04-03T08:02:04;40.92;34.69;57.39;;
37833;Laerm;23678;48.778;9.160;2023-04-03T08:07:16;41.53;32.93;53.58;;
37833;Laerm;23678;48.778;9.160;2023-04-03T08:09:41;40.91;35.36;49.44;;
37833;Laerm;23678;48.778;9.160;2023-04-03T08:12:07;40.90;32.35;53.82;;
37833;Laerm;23678;48.778;9.160;2023-04-03T08:14:32;40.80;34.69;49.12;;
37833;Laerm;23678;48.778;9.160;2023-04-03T08:16:59;39.74;32.35;48.18;;
37833;Laerm;23678;48.778;9.160;2023-04-03T08:19:25;40.72;33.90;48.49;;
37833;Laerm;23678;48.778;9.160;2023-04-03T08:21:51;42.20;35.04;56.19;;
37833;Laerm;23678;48.778;9.160;2023-04-03T08:24:16;39.86;34.31;47.52;;
37833;Laerm;23678;48.778;9.160;2023-04-03T08:26:41;40.56;33.90;51.96;;
37833;Laerm;23678;48.778;9.160;2023-04-03T08:29:07;40.52;32.93;49.60;;
37833;Laerm;23678;48.778;9.160;2023-04-03T08:31:32;38.86;32.93;43.58;;
37833;Laerm;23678;48.778;9.160;2023-04-03T08:33:58;39.08;33.44;46.62;;
37833;Laerm;23678;48.778;9.160;2023-04-03T08:36:25;40.37;32.93;48.84;;
37833;Laerm;23678;48.778;9.160;2023-04-03T08:38:52;40.04;34.31;44.51;;
37833;Laerm;23678;48.778;9.160;2023-04-03T08:41:25;40.39;35.36;47.16;;
37833;Laerm;23678;48.778;9.160;2023-04-03T08:46:22;39.64;33.44;49.98;;
37833;Laerm;23678;48.778;9.160;2023-04-03T08:48:50;41.46;33.90;50.89;;
37833;Laerm;23678;48.778;9.160;2023-04-03T08:51:17;40.78;35.04;50.09;;
37833;Laerm;23678;48.778;9.160;2023-04-03T08:53:45;41.62;35.04;50.70;;
37833;Laerm;23678;48.778;9.160;2023-04-03T08:56:13;41.85;34.69;56.71;;
37833;Laerm;23678;48.778;9.160;2023-04-03T08:59:03;40.31;35.36;49.04;;
37833;Laerm;23678;48.778;9.160;2023-04-03T09:03:57;41.07;33.44;61.35;;
37833;Laerm;23678;48.778;9.160;2023-04-03T09:06:23;39.20;29.92;45.51;;
37833;Laerm;23678;48.778;9.160;2023-04-03T09:11:51;40.46;32.93;52.85;;
37833;Laerm;23678;48.778;9.160;2023-04-03T09:17:29;39.80;34.69;47.32;;
37833;Laerm;23678;48.778;9.160;2023-04-03T09:20:03;40.82;34.69;49.12;;
37833;Laerm;23678;48.778;9.160;2023-04-03T09:22:32;40.63;33.44;49.84;;
37833;Laerm;23678;48.778;9.160;2023-04-03T09:25:15;41.15;33.90;51.98;;
37833;Laerm;23678;48.778;9.160;2023-04-03T09:27:42;39.99;32.35;50.66;;
37833;Laerm;23678;48.778;9.160;2023-04-03T09:30:12;41.32;34.69;51.40;;
37833;Laerm;23678;48.778;9.160;2023-04-03T09:32:39;39.23;32.93;47.30;;
37833;Laerm;23678;48.778;9.160;2023-04-03T09:35:27;39.95;33.44;52.53;;
37833;Laerm;23678;48.778;9.160;2023-04-03T09:37:51;41.18;33.44;55.81;;
37833;Laerm;23678;48.778;9.160;2023-04-03T09:45:45;41.75;33.44;56.91;;
37833;Laerm;23678;48.778;9.160;2023-04-03T09:53:38;41.20;33.44;54.88;;
37833;Laerm;23678;48.778;9.160;2023-04-03T09:56:09;41.29;34.69;50.85;;
37833;Laerm;23678;48.778;9.160;2023-04-03T10:03:47;41.09;33.44;63.95;;
37833;Laerm;23678;48.778;9.160;2023-04-03T10:06:29;39.90;33.90;50.70;;
37833;Laerm;23678;48.778;9.160;2023-04-03T10:08:59;39.87;34.31;46.52;;
37833;Laerm;23678;48.778;9.160;2023-04-03T10:11:26;40.93;35.66;49.43;;
37833;Laerm;23678;48.778;9.160;2023-04-03T10:13:52;40.53;34.69;49.49;;
37833;Laerm;23678;48.778;9.160;2023-04-03T10:16:20;39.17;33.44;59.81;;
37833;Laerm;23678;48.778;9.160;2023-04-03T10:21:34;41.29;33.90;51.11;;
37833;Laerm;23678;48.778;9.160;2023-04-03T10:31:48;41.10;33.44;53.69;;
37833;Laerm;23678;48.778;9.160;2023-04-03T10:36:46;39.02;32.93;44.07;;
37833;Laerm;23678;48.778;9.160;2023-04-03T10:42:02;41.22;33.44;61.59;;
37833;Laerm;23678;48.778;9.160;2023-04-03T10:52:37;39.45;34.31;45.77;;
37833;Laerm;23678;48.778;9.160;2023-04-03T10:57:38;40.15;32.93;45.97;;
37833;Laerm;23678;48.778;9.160;2023-04-03T11:00:06;40.32;33.44;50.28;;
37833;Laerm;23678;48.778;9.160;2023-04-03T11:02:39;40.10;31.68;48.09;;
37833;Laerm;23678;48.778;9.160;2023-04-03T11:07:39;41.74;35.94;57.77;;
37833;Laerm;23678;48.778;9.160;2023-04-03T11:10:10;42.02;35.36;61.27;;
37833;Laerm;23678;48.778;9.160;2023-04-03T11:12:42;40.90;34.31;47.93;;
37833;Laerm;23678;48.778;9.160;2023-04-03T11:15:13;40.83;32.93;51.30;;
37833;Laerm;23678;48.778;9.160;2023-04-03T11:17:41;41.83;34.69;54.22;;
37833;Laerm;23678;48.778;9.160;2023-04-03T11:20:16;40.98;34.31;52.12;;
37833;Laerm;23678;48.778;9.160;2023-04-03T11:25:29;39.82;33.44;55.11;;
37833;Laerm;23678;48.778;9.160;2023-04-03T11:38:37;41.60;35.66;50.08;;
37833;Laerm;23678;48.778;9.160;2023-04-03T11:41:06;40.33;34.69;48.35;;
37833;Laerm;23678;48.778;9.160;2023-04-03T11:43:32;42.58;34.69;52.83;;
37833;Laerm;23678;48.778;9.160;2023-04-03T11:45:59;40.64;35.04;54.04;;
37833;Laerm;23678;48.778;9.160;2023-04-03T11:50:56;40.38;33.90;53.50;;
37833;Laerm;23678;48.778;9.160;2023-04-03T11:58:26;40.26;35.31;47.50;;
37833;Laerm;23678;48.778;9.160;2023-04-03T12:08:36;40.26;33.90;54.84;;
37833;Laerm;23678;48.778;9.160;2023-04-03T12:13:33;39.63;32.93;49.46;;
37833;Laerm;23678;48.778;9.160;2023-04-03T12:15:59;40.98;34.31;50.41;;
37833;Laerm;23678;48.778;9.160;2023-04-03T12:18:31;42.85;34.69;68.45;;
37833;Laerm;23678;48.778;9.160;2023-04-03T12:20:57;39.94;33.90;53.05;;
37833;Laerm;23678;48.778;9.160;2023-04-03T12:23:33;41.05;34.31;54.05;;
37833;Laerm;23678;48.778;9.160;2023-04-03T12:26:05;42.40;35.04;59.78;;
37833;Laerm;23678;48.778;9.160;2023-04-03T12:28:38;44.72;35.04;75.86;;
37833;Laerm;23678;48.778;9.160;2023-04-03T12:31:05;41.35;34.31;52.53;;
37833;Laerm;23678;48.778;9.160;2023-04-03T12:33:38;38.44;30.89;43.29;;
37833;Laerm;23678;48.778;9.160;2023-04-03T12:36:11;38.74;33.44;49.39;;
37833;Laerm;23678;48.778;9.160;2023-04-03T12:41:45;40.52;33.90;49.56;;
37833;Laerm;23678;48.778;9.160;2023-04-03T12:46:44;40.64;34.31;59.25;;
37833;Laerm;23678;48.778;9.160;2023-04-03T12:51:45;41.63;34.31;48.77;;
37833;Laerm;23678;48.778;9.160;2023-04-03T12:54:16;42.39;34.69;52.76;;
37833;Laerm;23678;48.778;9.160;2023-04-03T12:56:42;39.50;32.58;50.34;;
37833;Laerm;23678;48.778;9.160;2023-04-03T13:01:42;41.83;34.31;55.14;;
37833;Laerm;23678;48.778;9.160;2023-04-03T13:04:09;39.34;32.93;45.30;;
37833;Laerm;23678;48.778;9.160;2023-04-03T13:06:40;42.68;34.31;52.32;;
37833;Laerm;23678;48.778;9.160;2023-04-03T13:09:06;40.08;33.90;51.27;;
37833;Laerm;23678;48.778;9.160;2023-04-03T13:11:40;42.89;34.31;61.90;;
37833;Laerm;23678;48.778;9.160;2023-04-03T13:14:17;41.97;33.90;63.84;;
37833;Laerm;23678;48.778;9.160;2023-04-03T13:16:52;41.36;34.31;60.53;;
37833;Laerm;23678;48.778;9.160;2023-04-03T13:19:18;45.05;34.31;57.41;;
37833;Laerm;23678;48.778;9.160;2023-04-03T13:21:43;40.95;33.90;54.57;;
37833;Laerm;23678;48.778;9.160;2023-04-03T13:24:10;45.55;33.90;62.56;;
37833;Laerm;23678;48.778;9.160;2023-04-03T13:26:41;41.68;36.20;54.83;;
37833;Laerm;23678;48.778;9.160;2023-04-03T13:29:14;41.69;34.31;57.12;;
37833;Laerm;23678;48.778;9.160;2023-04-03T13:31:42;41.13;35.04;58.62;;
37833;Laerm;23678;48.778;9.160;2023-04-03T13:34:12;42.11;35.36;54.59;;
37833;Laerm;23678;48.778;9.160;2023-04-03T13:36:40;42.00;32.93;53.41;;
37833;Laerm;23678;48.778;9.160;2023-04-03T13:41:50;43.37;34.69;54.53;;
37833;Laerm;23678;48.778;9.160;2023-04-03T13:46:48;41.61;33.44;53.81;;
37833;Laerm;23678;48.778;9.160;2023-04-03T13:49:21;42.32;33.44;56.35;;
37833;Laerm;23678;48.778;9.160;2023-04-03T13:51:47;42.65;35.94;57.31;;
37833;Laerm;23678;48.778;9.160;2023-04-03T13:54:18;43.87;33.44;68.38;;
37833;Laerm;23678;48.778;9.160;2023-04-03T13:56:44;45.36;34.69;61.07;;
37833;Laerm;23678;48.778;9.160;2023-04-03T14:04:15;40.40;32.93;52.17;;
37833;Laerm;23678;48.778;9.160;2023-04-03T14:06:41;41.24;34.69;50.55;;
37833;Laerm;23678;48.778;9.160;2023-04-03T14:09:06;42.40;33.90;58.13;;
37833;Laerm;23678;48.778;9.160;2023-04-03T14:11:31;42.67;34.31;56.29;;
37833;Laerm;23678;48.778;9.160;2023-04-03T14:14:00;42.42;34.69;55.02;;
37833;Laerm;23678;48.778;9.160;2023-04-03T14:16:26;40.59;33.44;51.84;;
37833;Laerm;23678;48.778;9.160;2023-04-03T14:18:52;41.53;33.44;57.86;;
37833;Laerm;23678;48.778;9.160;2023-04-03T14:21:19;41.54;33.90;53.12;;
37833;Laerm;23678;48.778;9.160;2023-04-03T14:23:45;40.45;33.90;55.04;;
37833;Laerm;23678;48.778;9.160;2023-04-03T14:26:12;41.59;34.69;54.35;;
37833;Laerm;23678;48.778;9.160;2023-04-03T14:28:37;41.76;29.92;57.44;;
37833;Laerm;23678;48.778;9.160;2023-04-03T14:33:56;42.25;32.35;59.70;;
37833;Laerm;23678;48.778;9.160;2023-04-03T14:36:23;40.32;33.90;54.72;;
37833;Laerm;23678;48.778;9.160;2023-04-03T14:38:50;40.74;32.35;52.76;;
37833;Laerm;23678;48.778;9.160;2023-04-03T14:41:17;41.10;33.90;50.18;;
37833;Laerm;23678;48.778;9.160;2023-04-03T14:43:44;40.44;33.90;55.10;;
37833;Laerm;23678;48.778;9.160;2023-04-03T14:46:28;41.94;34.69;55.23;;
37833;Laerm;23678;48.778;9.160;2023-04-03T14:48:55;40.17;33.90;57.16;;
37833;Laerm;23678;48.778;9.160;2023-04-03T14:51:20;38.80;33.44;46.50;;
37833;Laerm;23678;48.778;9.160;2023-04-03T14:53:45;39.54;33.44;49.00;;
37833;Laerm;23678;48.778;9.160;2023-04-03T14:56:19;41.11;33.90;49.39;;
37833;Laerm;23678;48.778;9.160;2023-04-03T14:58:47;40.26;33.55;47.50;;
37833;Laerm;23678;48.778;9.160;2023-04-03T15:01:15;40.07;32.93;57.92;;
37833;Laerm;23678;48.778;9.160;2023-04-03T15:03:41;39.55;33.44;49.46;;
37833;Laerm;23678;48.778;9.160;2023-04-03T15:06:08;40.19;35.04;54.33;;
37833;Laerm;23678;48.778;9.160;2023-04-03T15:08:33;40.16;31.68;50.08;;
37833;Laerm;23678;48.778;9.160;2023-04-03T15:10:59;41.38;34.31;50.23;;
37833;Laerm;23678;48.778;9.160;2023-04-03T15:16:25;39.88;33.44;47.04;;
37833;Laerm;23678;48.778;9.160;2023-04-03T15:18:50;40.08;34.31;47.52;;
37833;Laerm;23678;48.778;9.160;2023-04-03T15:21:16;39.43;34.31;45.75;;
37833;Laerm;23678;48.778;9.160;2023-04-03T15:23:41;39.92;32.93;45.86;;
37833;Laerm;23678;48.778;9.160;2023-04-03T15:26:07;41.98;33.90;55.75;;
37833;Laerm;23678;48.778;9.160;2023-04-03T15:28:34;39.26;34.31;45.17;;
37833;Laerm;23678;48.778;9.160;2023-04-03T15:31:00;41.67;33.44;59.03;;
37833;Laerm;23678;48.778;9.160;2023-04-03T15:33:26;40.40;33.90;53.32;;
37833;Laerm;23678;48.778;9.160;2023-04-03T15:35:51;41.26;33.44;57.26;;
37833;Laerm;23678;48.778;9.160;2023-04-03T15:38:17;47.75;33.44;65.62;;
37833;Laerm;23678;48.778;9.160;2023-04-03T15:40:42;42.14;32.93;55.05;;
37833;Laerm;23678;48.778;9.160;2023-04-03T15:43:08;39.82;33.90;53.46;;
37833;Laerm;23678;48.778;9.160;2023-04-03T15:45:35;47.81;35.36;62.73;;
37833;Laerm;23678;48.778;9.160;2023-04-03T15:48:01;43.98;32.35;62.31;;
37833;Laerm;23678;48.778;9.160;2023-04-03T15:50:26;40.96;34.69;48.46;;